Terminal Aerodrome Forecast
Issued by NWS

Home | Current Version | Previous Version | Graphics & Text | Print | Product List | Glossary On
Versions: 1 2 3 4 5 6 7 8 9 10 11 12 13 14 15 16 17 18 19 20 21 22 23 24
000
FTUS43 KMPX 291500 AAA
TAFRNH
TAF AMD
KRNH 291516Z 2915/3012 02011G18KT P6SM SCT012 OVC025
     FM291800 03010KT P6SM BKN016 OVC030
     FM292200 04009KT P6SM SCT020 BKN035
     FM300700 08007KT 5SM BR SCT008=

USA.gov is the U.S. government's official web portal to all federal, state and local government web resources and services.